Maran Poseidon — SVAV3 — position and weather

sailwx.info

Track history (hours):
 
Tides and Currents Weather Stations Pressure Air Temp Water Temp Dewpoint Dewpoint Depression Visibility Wind Speed Wind Dir Waves Ship Positions

Maran Poseidon

Last reported at 2017-Jan-22 07:09 UTC. Time now 2017-Jan-22 07:59 UTC.
Position N 25°41' W 092°36'.

Length 274 m; draft 9.4 m.

Type: Tanker. MMSI: 240959000.

Date/timePositionNaut miles runAvg speedWind from/ knotsBaromVisibWave heightAir tempDewpointWater temp
2017-Jan-22 07:09N 25°41' W 092°36'  
2017-Jan-18 19:32N 29°23' W 094°48'1111.2
2017-Jan-18 18:33N 29°32' W 094°54'10 9.6
2017-Jan-18 17:33N 29°41' W 094°59'7 7.3
2017-Jan-18 16:33N 29°46' W 095°05'3 2.3
2017-Jan-18 15:28N 29°44' W 095°08'0 0.0
2017-Jan-18 14:31N 29°44' W 095°08'0 0.0
2017-Jan-17 20:31N 29°44' W 095°08'0 0.0
2017-Jan-17 19:28N 29°44' W 095°08'0 0.0
2017-Jan-17 18:31N 29°44' W 095°08'0 0.0
2017-Jan-17 17:31N 29°44' W 095°08'0 0.0
2017-Jan-17 16:31N 29°44' W 095°08'0 0.0
2017-Jan-17 15:31N 29°44' W 095°08'0 0.0
2017-Jan-17 14:25N 29°44' W 095°08'0 0.0
2017-Jan-16 23:19N 29°44' W 095°08'0 0.0
2017-Jan-16 22:31N 29°44' W 095°08'0 0.0
2017-Jan-16 21:31N 29°44' W 095°08'0 0.0
2017-Jan-16 20:31N 29°44' W 095°08'0 0.0
2017-Jan-16 19:31N 29°44' W 095°08'0 0.0
2017-Jan-16 18:22N 29°44' W 095°08'0 0.2
2017-Jan-16 17:33N 29°44' W 095°08'4 3.8
2017-Jan-16 16:33N 29°44' W 095°03'6 5.6
2017-Jan-16 15:33N 29°40' W 094°59'10 9.6
2017-Jan-16 14:33N 29°32' W 094°53'1111.1
2017-Jan-16 13:33N 29°22' W 094°48'  
Track history (hours):
 
Tides and Currents Weather Stations Pressure Air Temp Water Temp Dewpoint Dewpoint Depression Visibility Wind Speed Wind Dir Waves Ship Positions

Maran Poseidon

Last reported at 2017-Jan-22 07:09 UTC. Time now 2017-Jan-22 07:59 UTC.
Position N 25°41' W 092°36'.

Length 274 m; draft 9.4 m.

Type: Tanker. MMSI: 240959000.

Date/timePositionNaut miles runAvg speedWind from/ knotsBaromVisibWave heightAir tempDewpointWater temp
2017-Jan-22 07:09N 25°41' W 092°36'  
2017-Jan-18 19:32N 29°23' W 094°48'1111.2
2017-Jan-18 18:33N 29°32' W 094°54'10 9.6
2017-Jan-18 17:33N 29°41' W 094°59'7 7.3
2017-Jan-18 16:33N 29°46' W 095°05'3 2.3
2017-Jan-18 15:28N 29°44' W 095°08'0 0.0
2017-Jan-18 14:31N 29°44' W 095°08'0 0.0
2017-Jan-17 20:31N 29°44' W 095°08'0 0.0
2017-Jan-17 19:28N 29°44' W 095°08'0 0.0
2017-Jan-17 18:31N 29°44' W 095°08'0 0.0
2017-Jan-17 17:31N 29°44' W 095°08'0 0.0
2017-Jan-17 16:31N 29°44' W 095°08'0 0.0
2017-Jan-17 15:31N 29°44' W 095°08'0 0.0
2017-Jan-17 14:25N 29°44' W 095°08'0 0.0
2017-Jan-16 23:19N 29°44' W 095°08'0 0.0
2017-Jan-16 22:31N 29°44' W 095°08'0 0.0
2017-Jan-16 21:31N 29°44' W 095°08'0 0.0
2017-Jan-16 20:31N 29°44' W 095°08'0 0.0
2017-Jan-16 19:31N 29°44' W 095°08'0 0.0
2017-Jan-16 18:22N 29°44' W 095°08'0 0.2
2017-Jan-16 17:33N 29°44' W 095°08'4 3.8
2017-Jan-16 16:33N 29°44' W 095°03'6 5.6
2017-Jan-16 15:33N 29°40' W 094°59'10 9.6
2017-Jan-16 14:33N 29°32' W 094°53'1111.1
2017-Jan-16 13:33N 29°22' W 094°48'  

Dump ship's entire track history